createdAt,value
2018-04-22T00:02:52.208Z,60.40
2018-04-22T00:08:20.412Z,60.60
2018-04-22T00:13:48.567Z,60.40
2018-04-22T00:19:16.757Z,60.70
2018-04-22T00:24:44.911Z,60.60
2018-04-22T00:30:13.090Z,60.70
2018-04-22T00:35:42.211Z,60.60
2018-04-22T00:41:11.141Z,60.80
2018-04-22T00:46:40.064Z,61.10
2018-04-22T00:52:09.133Z,61.20
2018-04-22T00:57:38.039Z,61.30
2018-04-22T01:03:06.197Z,61.20
2018-04-22T01:08:35.120Z,61.80
2018-04-22T01:14:03.277Z,61.80
2018-04-22T01:19:31.479Z,62.10
2018-04-22T01:25:00.411Z,62.60
2018-04-22T01:30:29.376Z,62.70
2018-04-22T01:35:57.640Z,62.70
2018-04-22T01:41:25.803Z,62.90
2018-04-22T01:46:54.720Z,63.10
2018-04-22T01:52:23.621Z,63.10
2018-04-22T01:57:51.793Z,63.50
2018-04-22T02:03:20.717Z,64.10
2018-04-22T02:08:48.880Z,64.00
2018-04-22T02:14:17.020Z,64.20
2018-04-22T02:19:45.186Z,63.90
2018-04-22T02:25:14.139Z,64.50
2018-04-22T02:30:42.276Z,64.40
2018-04-22T02:36:10.564Z,64.60
2018-04-22T02:41:39.501Z,64.50
2018-04-22T02:47:08.437Z,64.40
2018-04-22T02:52:37.356Z,64.80
2018-04-22T02:58:05.526Z,64.80
2018-04-22T03:03:33.702Z,64.80
2018-04-22T03:09:01.898Z,64.90
2018-04-22T03:14:30.113Z,65.30
2018-04-22T03:19:58.295Z,65.10
2018-04-22T03:25:26.464Z,65.30
2018-04-22T03:30:54.626Z,65.40
2018-04-22T03:36:23.555Z,65.60
2018-04-22T03:41:52.489Z,65.60
2018-04-22T03:47:21.412Z,65.70
2018-04-22T03:52:49.578Z,65.70
2018-04-22T03:58:18.507Z,66.20
2018-04-22T04:03:46.658Z,66.10
2018-04-22T04:09:14.795Z,66.40
2018-04-22T04:14:42.950Z,66.40
2018-04-22T04:20:29.927Z,66.70
2018-04-22T04:32:22.952Z,66.60
2018-04-22T04:37:51.103Z,66.70
2018-04-22T04:43:20.030Z,67.20
2018-04-22T04:48:48.189Z,67.20
2018-04-22T04:54:16.361Z,67.30
2018-04-22T04:59:44.463Z,67.20
2018-04-22T05:05:12.616Z,67.10
2018-04-22T05:10:41.630Z,67.10
2018-04-22T05:16:09.804Z,67.10
2018-04-22T05:21:37.965Z,67.70
2018-04-22T05:27:06.315Z,66.90
2018-04-22T05:32:35.219Z,66.40
2018-04-22T05:38:03.370Z,66.40
2018-04-22T05:43:31.518Z,66.60
2018-04-22T05:48:59.713Z,65.40
2018-04-22T05:54:28.659Z,64.30
2018-04-22T05:59:57.567Z,63.60
2018-04-22T06:05:25.706Z,63.60
2018-04-22T06:10:54.692Z,62.50
2018-04-22T06:16:24.842Z,62.50
2018-04-22T06:21:52.994Z,61.90
2018-04-22T06:27:21.135Z,61.60
2018-04-22T06:32:49.268Z,61.00
2018-04-22T06:38:18.172Z,59.60
2018-04-22T06:43:46.334Z,59.50
2018-04-22T06:49:19.158Z,58.80
2018-04-22T06:54:49.734Z,59.00
2018-04-22T07:00:18.900Z,57.90
2018-04-22T07:05:47.045Z,57.80
2018-04-22T07:11:15.231Z,57.70
2018-04-22T07:16:43.387Z,56.60
2018-04-22T07:22:11.532Z,56.20
2018-04-22T07:27:43.901Z,55.40
2018-04-22T07:33:12.061Z,54.90
2018-04-22T07:38:40.215Z,54.20
2018-04-22T07:44:13.289Z,53.40
2018-04-22T07:49:41.460Z,53.30
2018-04-22T07:55:10.638Z,52.90
2018-04-22T08:00:39.989Z,51.80
2018-04-22T08:06:08.181Z,50.90
2018-04-22T08:11:39.270Z,50.60
2018-04-22T08:17:07.445Z,50.50
2018-04-22T08:22:36.578Z,50.10
2018-04-22T08:28:05.515Z,50.50
2018-04-22T08:33:33.812Z,50.50
2018-04-22T08:39:01.985Z,50.00
2018-04-22T08:44:30.185Z,49.30
2018-04-22T08:49:58.499Z,48.40
2018-04-22T08:55:26.741Z,47.40
2018-04-22T09:00:54.888Z,46.90
2018-04-22T09:06:26.105Z,46.80
2018-04-22T09:11:54.256Z,46.10
2018-04-22T09:17:22.489Z,45.10
2018-04-22T09:22:50.772Z,45.20
2018-04-22T09:28:18.938Z,45.30
2018-04-22T09:33:47.090Z,44.10
2018-04-22T09:39:16.049Z,43.60
2018-04-22T09:44:44.202Z,43.40
2018-04-22T09:50:12.347Z,43.30
2018-04-22T09:55:40.550Z,43.00
2018-04-22T10:01:08.727Z,42.70
2018-04-22T10:06:36.888Z,42.00
2018-04-22T10:12:05.106Z,42.00
2018-04-22T10:17:34.998Z,41.30
2018-04-22T10:23:04.174Z,41.30
2018-04-22T10:28:32.537Z,41.40
2018-04-22T10:34:01.519Z,41.10
2018-04-22T10:39:30.721Z,40.30
2018-04-22T10:44:58.899Z,39.50
2018-04-22T10:50:27.277Z,39.20
2018-04-22T10:55:55.426Z,38.80
2018-04-22T11:01:24.489Z,35.90
2018-04-22T11:06:52.705Z,35.80
2018-04-22T11:12:20.867Z,36.70
2018-04-22T11:17:49.041Z,34.50
2018-04-22T11:23:18.273Z,32.70
2018-04-22T11:28:58.109Z,32.70
2018-04-22T11:34:28.351Z,31.10
2018-04-22T11:39:57.296Z,30.30
2018-04-22T11:45:25.488Z,30.20
2018-04-22T11:50:53.638Z,30.80
2018-04-22T11:56:21.794Z,30.30
2018-04-22T12:01:49.941Z,29.70
2018-04-22T12:07:18.158Z,29.90
2018-04-22T12:12:46.315Z,29.30
2018-04-22T12:18:15.536Z,29.40
2018-04-22T12:23:44.455Z,30.00
2018-04-22T12:29:12.622Z,30.00
2018-04-22T12:34:41.751Z,28.60
2018-04-22T12:40:11.680Z,28.40
2018-04-22T12:45:39.956Z,28.40
2018-04-22T12:51:08.176Z,28.00
2018-04-22T12:56:36.330Z,29.10
2018-04-22T13:02:04.533Z,29.70
2018-04-22T13:07:32.738Z,30.20
2018-04-22T13:13:01.928Z,30.10
2018-04-22T13:18:30.128Z,29.90
2018-04-22T13:23:58.324Z,29.90
2018-04-22T13:29:26.556Z,29.60
2018-04-22T13:34:55.033Z,28.90
2018-04-22T13:40:24.044Z,29.40
2018-04-22T13:45:52.238Z,29.30
2018-04-22T13:51:21.349Z,29.40
2018-04-22T13:56:50.818Z,29.10
2018-04-22T14:02:18.968Z,29.10
2018-04-22T14:07:47.529Z,28.40
2018-04-22T14:13:16.026Z,28.00
2018-04-22T14:18:44.188Z,28.40
2018-04-22T14:24:13.101Z,27.00
2018-04-22T14:29:41.825Z,26.90
2018-04-22T14:35:10.057Z,25.70
2018-04-22T14:40:38.267Z,21.60
2018-04-22T14:46:14.129Z,18.40
2018-04-22T14:51:42.279Z,17.10
2018-04-22T14:57:10.450Z,16.90
2018-04-22T15:02:39.373Z,17.40
2018-04-22T15:08:07.724Z,17.40
2018-04-22T15:13:37.049Z,18.80
2018-04-22T15:19:06.004Z,20.00
2018-04-22T15:24:37.905Z,19.90
2018-04-22T15:30:07.210Z,21.30
2018-04-22T15:35:36.590Z,20.50
2018-04-22T15:41:05.594Z,21.10
2018-04-22T15:46:34.752Z,21.10
2018-04-22T15:52:03.106Z,21.40
2018-04-22T15:57:32.119Z,23.80
2018-04-22T16:03:00.325Z,23.30
2018-04-22T16:08:28.531Z,24.10
2018-04-22T16:13:57.894Z,24.60
2018-04-22T16:19:26.186Z,24.90
2018-04-22T16:24:54.357Z,25.10
2018-04-22T16:30:23.654Z,25.40
2018-04-22T16:35:52.722Z,25.60
2018-04-22T16:41:21.197Z,25.60
2018-04-22T16:46:51.385Z,25.80
2018-04-22T16:52:19.532Z,25.90
2018-04-22T16:57:49.664Z,26.00
2018-04-22T17:03:17.847Z,26.20
2018-04-22T17:08:46.002Z,26.50
2018-04-22T17:14:16.310Z,27.50
2018-04-22T17:19:46.493Z,28.00
2018-04-22T17:25:20.773Z,27.50
2018-04-22T17:30:49.000Z,27.80
2018-04-22T17:36:17.206Z,28.00
2018-04-22T17:41:47.241Z,27.90
2018-04-22T17:47:16.428Z,28.10
2018-04-22T17:52:45.399Z,28.50
2018-04-22T17:58:13.548Z,28.40
2018-04-22T18:03:41.705Z,28.60
2018-04-22T18:09:11.355Z,29.70
2018-04-22T18:14:39.629Z,29.70
2018-04-22T18:20:09.022Z,31.80
2018-04-22T18:25:37.267Z,31.70
2018-04-22T18:31:05.548Z,32.20
2018-04-22T18:36:33.699Z,32.60
2018-04-22T18:42:02.665Z,34.40
2018-04-22T18:47:30.822Z,34.50
2018-04-22T18:52:59.266Z,35.00
2018-04-22T18:58:27.467Z,35.10
2018-04-22T19:03:55.620Z,35.90
2018-04-22T19:09:24.558Z,37.70
2018-04-22T19:14:56.393Z,37.80
2018-04-22T19:20:24.536Z,38.60
2018-04-22T19:25:52.697Z,39.00
2018-04-22T19:31:21.634Z,40.60
2018-04-22T19:36:49.924Z,40.60
2018-04-22T19:42:19.058Z,41.00
2018-04-22T19:47:47.237Z,41.60
2018-04-22T19:53:16.189Z,42.30
2018-04-22T19:58:44.952Z,42.30
2018-04-22T20:04:13.160Z,43.10
2018-04-22T20:09:41.477Z,43.30
2018-04-22T20:15:09.651Z,44.10
2018-04-22T20:20:42.390Z,44.70
2018-04-22T20:26:11.336Z,45.70
2018-04-22T20:31:41.195Z,46.30
2018-04-22T20:37:10.104Z,46.50
2018-04-22T20:42:38.263Z,46.50
2018-04-22T20:48:07.208Z,46.20
2018-04-22T20:53:35.370Z,46.20
2018-04-22T20:59:04.594Z,46.50
2018-04-22T21:04:32.771Z,47.00
2018-04-22T21:10:01.757Z,47.70
2018-04-22T21:15:29.934Z,47.70
2018-04-22T21:20:59.102Z,47.90
2018-04-22T21:26:28.165Z,47.10
2018-04-22T21:31:56.352Z,47.70
2018-04-22T21:37:25.619Z,47.10
2018-04-22T21:42:53.790Z,47.10
2018-04-22T21:48:28.389Z,46.80
2018-04-22T21:53:57.326Z,47.30
2018-04-22T21:59:26.242Z,47.80
2018-04-22T22:04:54.385Z,47.70
2018-04-22T22:10:23.324Z,48.40
2018-04-22T22:15:53.904Z,48.20
2018-04-22T22:21:22.830Z,48.40
2018-04-22T22:26:51.738Z,47.60
2018-04-22T22:32:28.247Z,47.60
2018-04-22T22:37:56.402Z,47.40
2018-04-22T22:43:24.552Z,47.30
2018-04-22T22:48:52.699Z,47.30
2018-04-22T22:54:20.843Z,47.10
2018-04-22T22:59:48.988Z,47.00
2018-04-22T23:05:17.948Z,47.20
2018-04-22T23:10:46.093Z,47.20
2018-04-22T23:16:14.256Z,47.20
2018-04-22T23:21:42.399Z,47.30
2018-04-22T23:27:10.547Z,47.30
2018-04-22T23:32:38.721Z,47.40
2018-04-22T23:38:07.626Z,47.60
2018-04-22T23:43:35.790Z,47.60
2018-04-22T23:49:04.728Z,47.60
2018-04-22T23:54:32.931Z,47.60
